Time;durP1;ratioP1;P1;durP2;ratioP2;P2;SDS_P1;SDS_P2;PMS_P1;PMS_P2;Temp;Humidity;BMP_temperature;BMP_pressure;BME280_temperature;BME280_humidity;BME280_pressure;Samples;Min_cycle;Max_cycle;Signal;HPM_P1;HPM_P2
2022/02/22 00:00:14;;;;;;;59.45;9.75;;;5.90;99.90;;;;;;5076880;28;20521;-60
2022/02/22 00:02:42;;;;;;;47.78;9.23;;;6.00;99.90;;;;;;5062024;28;20399;-65
2022/02/22 00:05:10;;;;;;;49.33;8.98;;;5.90;99.90;;;;;;5062082;28;20074;-65
2022/02/22 00:07:36;;;;;;;35.28;6.50;;;5.90;99.90;;;;;;5094591;28;20129;-61
2022/02/22 00:10:02;;;;;;;47.05;9.23;;;5.90;99.90;;;;;;5080043;28;20236;-59
2022/02/22 00:12:28;;;;;;;44.53;7.65;;;5.90;99.90;;;;;;5094449;28;20402;-53
2022/02/22 00:14:54;;;;;;;42.00;8.25;;;6.00;99.90;;;;;;5097208;28;20044;-53
2022/02/22 00:17:20;;;;;;;52.53;9.35;;;5.90;99.90;;;;;;5102582;28;20043;-59
2022/02/22 00:19:45;;;;;;;47.20;7.90;;;6.00;99.90;;;;;;5089849;28;20048;-58
2022/02/22 00:22:11;;;;;;;35.42;6.57;;;5.90;99.90;;;;;;5089224;28;20044;-57
2022/02/22 00:24:37;;;;;;;42.28;7.40;;;5.90;99.90;;;;;;5108703;28;20061;-60
2022/02/22 00:27:04;;;;;;;55.28;8.90;;;5.90;99.90;;;;;;5080614;28;20088;-57
2022/02/22 00:29:30;;;;;;;51.95;8.95;;;5.90;99.90;;;;;;5077514;28;20129;-62
2022/02/22 00:31:56;;;;;;;55.13;9.35;;;5.80;99.90;;;;;;5080547;28;20059;-61
2022/02/22 00:34:21;;;;;;;49.80;7.28;;;5.80;99.90;;;;;;5096124;28;20043;-54
2022/02/22 00:36:47;;;;;;;50.20;8.93;;;5.70;99.90;;;;;;5081709;28;20051;-61
2022/02/22 00:39:13;;;;;;;46.33;9.15;;;5.70;99.90;;;;;;5088686;28;20044;-56
2022/02/22 00:41:39;;;;;;;56.28;9.38;;;5.70;99.90;;;;;;5088928;28;20046;-56
2022/02/22 00:44:06;;;;;;;38.72;7.47;;;5.60;99.90;;;;;;5099346;28;20405;-65
2022/02/22 00:46:33;;;;;;;52.70;8.13;;;5.60;99.90;;;;;;5108283;28;20079;-63
2022/02/22 00:48:58;;;;;;;52.47;10.13;;;5.60;99.90;;;;;;5106474;28;20050;-55
2022/02/22 00:51:24;;;;;;;58.15;11.15;;;5.60;99.90;;;;;;5107042;28;20043;-64
2022/02/22 00:53:50;;;;;;;53.95;12.55;;;5.60;99.90;;;;;;5089795;28;20044;-57
2022/02/22 00:56:16;;;;;;;62.88;12.25;;;5.60;99.90;;;;;;5107079;28;20468;-53
2022/02/22 00:58:42;;;;;;;50.78;12.73;;;5.60;99.90;;;;;;5089810;28;20079;-53
2022/02/22 01:01:10;;;;;;;58.17;11.43;;;5.60;99.90;;;;;;5093605;28;20558;-59
2022/02/22 01:03:35;;;;;;;55.88;9.95;;;5.60;99.90;;;;;;5072632;28;20045;-59
2022/02/22 01:06:01;;;;;;;54.00;10.38;;;5.60;99.90;;;;;;5084916;28;20047;-60
2022/02/22 01:08:27;;;;;;;54.47;15.70;;;5.50;99.90;;;;;;5072551;28;20078;-55
2022/02/22 01:10:53;;;;;;;55.10;12.50;;;5.50;99.90;;;;;;5094956;28;20055;-65
2022/02/22 01:13:21;;;;;;;50.08;12.23;;;5.60;99.90;;;;;;5086604;28;20040;-64
2022/02/22 01:15:48;;;;;;;55.38;12.85;;;5.60;99.90;;;;;;5081232;28;20112;-67
2022/02/22 01:18:14;;;;;;;56.35;11.07;;;5.60;99.90;;;;;;5088644;28;20113;-53
2022/02/22 01:20:40;;;;;;;50.47;10.90;;;5.60;99.90;;;;;;5077952;28;20043;-62
2022/02/22 01:23:06;;;;;;;66.65;11.35;;;5.60;99.90;;;;;;5064639;28;20079;-60
2022/02/22 01:25:32;;;;;;;48.47;12.73;;;5.60;99.90;;;;;;5088572;28;20040;-59
2022/02/22 01:27:58;;;;;;;59.80;10.45;;;5.50;99.90;;;;;;5088531;28;20051;-59
2022/02/22 01:30:24;;;;;;;56.47;11.90;;;5.50;99.90;;;;;;5088151;28;20051;-58
2022/02/22 01:32:50;;;;;;;57.95;12.93;;;5.50;99.90;;;;;;5073160;28;20047;-62
2022/02/22 01:35:15;;;;;;;57.03;13.07;;;5.50;99.90;;;;;;5070705;28;20519;-65
2022/02/22 01:37:41;;;;;;;61.83;10.32;;;5.50;99.90;;;;;;5096519;28;20055;-64
2022/02/22 01:40:08;;;;;;;50.25;10.25;;;5.50;99.90;;;;;;5099987;28;20078;-56
2022/02/22 01:42:34;;;;;;;52.00;11.32;;;5.40;99.90;;;;;;5089451;28;20086;-63
2022/02/22 01:45:01;;;;;;;53.97;9.32;;;5.50;99.90;;;;;;5101663;28;20035;-59
2022/02/22 01:47:27;;;;;;;56.28;11.65;;;5.50;99.90;;;;;;5088287;28;20374;-55
2022/02/22 01:49:52;;;;;;;52.53;9.95;;;5.60;99.90;;;;;;5071814;28;20046;-51
2022/02/22 01:52:18;;;;;;;53.75;10.30;;;5.50;99.90;;;;;;5105365;28;20044;-55
2022/02/22 01:54:45;;;;;;;59.60;10.80;;;5.60;99.90;;;;;;5080034;28;20039;-57
2022/02/22 01:57:11;;;;;;;54.28;12.15;;;5.50;99.90;;;;;;5102010;28;20199;-53
2022/02/22 01:59:37;;;;;;;49.53;11.43;;;5.50;99.90;;;;;;5096910;28;20405;-59
2022/02/22 02:02:03;;;;;;;42.70;11.40;;;5.50;99.90;;;;;;5078337;28;20073;-51
2022/02/22 02:04:31;;;;;;;43.22;8.93;;;5.50;99.90;;;;;;5064445;28;20610;-56
2022/02/22 02:06:58;;;;;;;47.35;10.13;;;5.40;99.90;;;;;;5087809;28;20079;-59
2022/02/22 02:09:24;;;;;;;43.00;11.60;;;5.60;99.90;;;;;;5086680;28;20489;-52
2022/02/22 02:12:00;;;;;;;46.72;10.50;;;5.60;99.90;;;;;;5095827;28;20097;-63
2022/02/22 02:14:27;;;;;;;52.38;9.80;;;5.60;99.90;;;;;;5098043;28;20047;-60
2022/02/22 02:16:55;;;;;;;59.90;9.18;;;5.60;99.90;;;;;;5088573;28;20075;-68
2022/02/22 02:19:21;;;;;;;53.78;10.05;;;5.60;99.90;;;;;;5106281;28;20108;-61
2022/02/22 02:21:49;;;;;;;50.30;9.52;;;5.60;99.90;;;;;;5079099;28;20052;-57
2022/02/22 02:24:18;;;;;;;52.05;9.73;;;5.50;99.90;;;;;;5098817;28;20044;-54
2022/02/22 02:26:45;;;;;;;53.33;10.13;;;5.50;99.90;;;;;;5075268;28;20572;-63
2022/02/22 02:29:13;;;;;;;44.22;9.82;;;5.50;99.90;;;;;;5088350;28;20059;-62
2022/02/22 02:31:41;;;;;;;53.30;9.07;;;5.50;99.90;;;;;;5104296;28;20048;-54
2022/02/22 02:34:08;;;;;;;56.50;11.40;;;5.50;99.90;;;;;;5104877;28;20079;-61
2022/02/22 02:36:35;;;;;;;43.70;8.95;;;5.50;99.90;;;;;;5057309;28;20055;-58
2022/02/22 02:39:03;;;;;;;40.95;10.23;;;5.60;99.90;;;;;;5069069;28;20450;-58
2022/02/22 02:41:29;;;;;;;58.70;11.13;;;5.50;99.90;;;;;;5095228;28;20051;-58
2022/02/22 02:44:04;;;;;;;51.75;10.80;;;5.50;99.90;;;;;;5077410;28;20044;-67
2022/02/22 02:46:30;;;;;;;53.97;9.65;;;5.50;99.90;;;;;;5084613;28;20128;-56
2022/02/22 02:48:56;;;;;;;54.78;10.10;;;5.50;99.90;;;;;;5086761;28;20126;-68
2022/02/22 02:51:22;;;;;;;44.70;9.77;;;5.40;99.90;;;;;;5106355;28;20051;-64
2022/02/22 02:53:52;;;;;;;61.58;11.90;;;5.40;99.90;;;;;;5105777;28;20290;-51
2022/02/22 02:56:22;;;;;;;52.72;11.30;;;5.40;99.90;;;;;;5079426;28;20050;-53
2022/02/22 02:58:50;;;;;;;50.28;11.30;;;5.40;99.90;;;;;;5087918;28;20078;-57
2022/02/22 03:01:16;;;;;;;56.55;12.23;;;5.40;99.90;;;;;;5081938;28;20699;-60
2022/02/22 03:03:42;;;;;;;46.78;9.75;;;5.30;99.90;;;;;;5085820;28;20082;-57
2022/02/22 03:06:07;;;;;;;46.53;11.38;;;5.40;99.90;;;;;;5083094;28;20047;-52
2022/02/22 03:08:33;;;;;;;54.85;9.95;;;5.30;99.90;;;;;;5069188;28;20097;-64
2022/02/22 03:10:59;;;;;;;49.50;8.85;;;5.30;99.90;;;;;;5085417;28;20051;-53
2022/02/22 03:13:26;;;;;;;45.80;8.68;;;5.20;99.90;;;;;;5092475;28;20467;-59
2022/02/22 03:15:52;;;;;;;49.25;9.18;;;5.10;99.90;;;;;;5071202;28;20051;-60
2022/02/22 03:18:17;;;;;;;58.05;10.52;;;5.20;99.90;;;;;;5076448;28;20516;-57
2022/02/22 03:20:43;;;;;;;48.60;10.63;;;5.20;99.90;;;;;;5082985;28;20040;-57
2022/02/22 03:23:09;;;;;;;51.33;10.18;;;5.20;99.90;;;;;;5088099;28;20052;-61
2022/02/22 03:25:35;;;;;;;56.75;10.45;;;5.10;99.90;;;;;;5086464;28;20054;-57
2022/02/22 03:28:03;;;;;;;65.45;10.32;;;5.10;99.90;;;;;;5083347;28;20394;-55
2022/02/22 03:30:32;;;;;;;47.85;8.60;;;5.10;99.90;;;;;;5106312;28;20055;-56
2022/02/22 03:32:58;;;;;;;42.33;10.32;;;5.10;99.90;;;;;;5063130;28;20565;-64
2022/02/22 03:35:24;;;;;;;50.60;11.68;;;5.10;99.90;;;;;;5102465;28;20070;-55
2022/02/22 03:37:50;;;;;;;51.53;8.40;;;5.10;99.90;;;;;;5071005;28;20486;-56
2022/02/22 03:40:15;;;;;;;39.45;8.35;;;5.20;99.90;;;;;;5087581;28;20339;-58
2022/02/22 03:42:43;;;;;;;52.33;9.93;;;5.10;99.90;;;;;;5081786;28;20062;-64
2022/02/22 03:45:10;;;;;;;48.42;9.13;;;5.10;99.90;;;;;;5085628;28;20115;-55
2022/02/22 03:47:37;;;;;;;49.97;7.35;;;5.10;99.90;;;;;;5099004;28;20097;-55
2022/02/22 03:50:04;;;;;;;39.10;8.50;;;5.00;99.90;;;;;;5066884;28;20118;-55
2022/02/22 03:52:30;;;;;;;50.35;10.25;;;5.00;99.90;;;;;;5105615;28;20177;-57
2022/02/22 03:54:56;;;;;;;41.13;9.25;;;5.00;99.90;;;;;;5102434;28;20468;-60
2022/02/22 03:57:22;;;;;;;39.42;8.25;;;5.00;99.90;;;;;;5078382;28;20051;-59
2022/02/22 03:59:48;;;;;;;43.88;8.15;;;5.00;99.90;;;;;;5067141;28;20107;-57
2022/02/22 04:02:14;;;;;;;41.03;8.65;;;5.10;99.90;;;;;;5078296;28;20382;-54
2022/02/22 04:04:39;;;;;;;47.75;8.70;;;5.10;99.90;;;;;;5073143;28;20123;-61
2022/02/22 04:07:05;;;;;;;42.25;8.07;;;5.10;99.90;;;;;;5084610;28;20047;-62
2022/02/22 04:09:31;;;;;;;52.05;8.25;;;5.00;99.90;;;;;;5093683;28;20062;-63
2022/02/22 04:11:57;;;;;;;48.63;8.70;;;5.00;99.90;;;;;;5109285;28;20039;-65
2022/02/22 04:14:22;;;;;;;66.40;11.88;;;5.00;99.90;;;;;;5107652;28;20438;-61
2022/02/22 04:16:48;;;;;;;41.10;9.07;;;4.90;99.90;;;;;;5090664;28;20043;-58
2022/02/22 04:19:14;;;;;;;44.35;8.40;;;4.90;99.90;;;;;;5104652;28;20040;-59
2022/02/22 04:21:40;;;;;;;50.53;9.65;;;4.90;99.90;;;;;;5088564;28;20039;-57
2022/02/22 04:24:06;;;;;;;48.10;7.32;;;4.90;99.90;;;;;;5092880;28;20039;-56
2022/02/22 04:26:32;;;;;;;60.55;7.65;;;4.90;99.90;;;;;;5090046;28;20044;-68
2022/02/22 04:29:00;;;;;;;45.03;6.82;;;4.90;99.90;;;;;;5108750;28;20051;-55
2022/02/22 04:31:29;;;;;;;52.75;8.52;;;4.90;99.90;;;;;;5088629;28;20135;-64
2022/02/22 04:33:55;;;;;;;46.47;7.85;;;5.00;99.90;;;;;;5092479;28;20036;-61
2022/02/22 04:36:21;;;;;;;45.30;6.07;;;4.90;99.90;;;;;;5106985;28;20036;-53
2022/02/22 04:38:46;;;;;;;43.20;7.25;;;4.90;99.90;;;;;;5099704;28;20040;-56
2022/02/22 04:41:12;;;;;;;45.42;6.03;;;4.80;99.90;;;;;;5083065;28;20044;-53
2022/02/22 04:43:38;;;;;;;57.88;7.10;;;4.80;99.90;;;;;;5108389;28;20043;-58
2022/02/22 04:46:04;;;;;;;42.08;5.40;;;4.70;99.90;;;;;;5107837;28;20134;-59
2022/02/22 04:48:30;;;;;;;65.43;7.72;;;4.60;99.90;;;;;;5107416;28;20044;-59
2022/02/22 04:50:55;;;;;;;56.80;8.18;;;4.60;99.90;;;;;;5104651;28;20485;-60
2022/02/22 04:53:21;;;;;;;57.05;7.82;;;4.60;99.90;;;;;;5064140;28;20045;-66
2022/02/22 04:55:47;;;;;;;54.35;9.68;;;4.60;99.90;;;;;;5087957;28;20474;-61
2022/02/22 04:58:12;;;;;;;54.67;7.63;;;4.60;99.90;;;;;;5093530;28;20036;-60
2022/02/22 05:00:38;;;;;;;57.28;9.32;;;4.60;99.90;;;;;;5108257;28;20060;-62
2022/02/22 05:03:04;;;;;;;56.55;7.97;;;4.70;99.90;;;;;;5100400;28;20417;-60
2022/02/22 05:05:29;;;;;;;62.28;8.02;;;4.80;99.90;;;;;;5107209;28;20031;-61
2022/02/22 05:07:55;;;;;;;55.15;7.05;;;4.70;99.90;;;;;;5107733;28;20130;-61
2022/02/22 05:10:21;;;;;;;42.95;6.75;;;4.70;99.90;;;;;;5087893;28;20052;-64
2022/02/22 05:12:46;;;;;;;53.70;8.52;;;4.60;99.90;;;;;;5085359;28;20098;-59
2022/02/22 05:15:12;;;;;;;52.33;8.32;;;4.50;99.90;;;;;;5088035;28;21033;-60
2022/02/22 05:17:38;;;;;;;55.25;7.85;;;4.50;99.90;;;;;;5089455;28;20047;-63
2022/02/22 05:20:08;;;;;;;44.40;7.13;;;4.50;99.90;;;;;;5107000;28;20127;-60
2022/02/22 05:22:52;;;;;;;44.05;6.03;;;4.50;99.90;;;;;;5104572;28;20497;-56
2022/02/22 05:25:18;;;;;;;27.05;3.38;;;4.50;99.90;;;;;;5078765;28;20126;-57
2022/02/22 05:27:44;;;;;;;43.67;6.22;;;4.40;99.90;;;;;;5088096;28;20576;-58
2022/02/22 05:30:13;;;;;;;37.00;4.97;;;4.40;99.90;;;;;;5107331;28;20056;-55
2022/02/22 05:32:39;;;;;;;21.57;2.40;;;4.40;99.90;;;;;;5104902;28;20051;-53
2022/02/22 05:35:06;;;;;;;40.83;5.20;;;4.40;99.90;;;;;;5093517;28;20366;-63
2022/02/22 05:37:32;;;;;;;44.95;6.28;;;4.40;99.90;;;;;;5105981;28;20047;-55
2022/02/22 05:39:58;;;;;;;48.95;7.32;;;4.40;99.90;;;;;;5088372;28;20047;-61
2022/02/22 05:42:25;;;;;;;38.67;6.28;;;4.40;99.90;;;;;;5107022;28;20047;-58
2022/02/22 05:44:51;;;;;;;36.00;4.28;;;4.30;99.90;;;;;;5092385;28;20036;-58
2022/02/22 05:47:17;;;;;;;35.40;5.53;;;4.30;99.90;;;;;;5088581;28;20078;-64
2022/02/22 05:49:44;;;;;;;54.58;8.05;;;4.20;99.90;;;;;;5106076;28;20486;-56
2022/02/22 05:52:10;;;;;;;43.28;5.57;;;4.10;99.90;;;;;;5088155;28;20040;-54
2022/02/22 05:54:37;;;;;;;39.50;5.63;;;4.10;99.90;;;;;;5097182;28;20349;-57
2022/02/22 05:57:03;;;;;;;47.75;5.70;;;4.00;99.90;;;;;;5074263;28;20384;-52
2022/02/22 05:59:29;;;;;;;42.40;6.25;;;4.00;99.90;;;;;;5106053;28;20040;-63
2022/02/22 06:01:55;;;;;;;30.30;3.30;;;4.10;99.90;;;;;;5061584;28;20089;-61
2022/02/22 06:04:22;;;;;;;34.90;4.13;;;4.10;99.90;;;;;;5102069;28;20047;-58
2022/02/22 06:06:48;;;;;;;20.45;2.95;;;4.10;99.90;;;;;;5078916;28;20047;-54
2022/02/22 06:09:14;;;;;;;53.70;7.07;;;4.10;99.90;;;;;;5107151;28;20032;-57
2022/02/22 06:11:40;;;;;;;63.00;9.02;;;4.10;99.90;;;;;;5087693;28;20071;-60
2022/02/22 06:14:06;;;;;;;28.13;3.85;;;4.10;99.90;;;;;;5088591;28;20044;-63
2022/02/22 06:16:33;;;;;;;34.63;5.13;;;4.10;99.90;;;;;;5079549;28;20044;-53
2022/02/22 06:18:59;;;;;;;36.60;5.60;;;4.00;99.90;;;;;;5106489;28;20047;-66
2022/02/22 06:21:25;;;;;;;34.47;5.53;;;4.00;99.90;;;;;;5106050;28;20354;-64
2022/02/22 06:23:51;;;;;;;20.30;2.33;;;4.00;99.90;;;;;;5106124;28;20144;-58
2022/02/22 06:26:16;;;;;;;47.78;6.90;;;4.00;99.90;;;;;;5096219;28;20143;-60
2022/02/22 06:28:42;;;;;;;39.47;5.60;;;4.00;99.90;;;;;;5088612;28;20504;-59
2022/02/22 06:31:08;;;;;;;31.02;3.83;;;4.00;99.90;;;;;;5085560;28;20391;-55
2022/02/22 06:33:34;;;;;;;55.58;7.07;;;4.00;99.90;;;;;;5073013;28;20056;-60
2022/02/22 06:36:00;;;;;;;28.73;4.90;;;3.90;99.90;;;;;;5044965;28;20471;-57
2022/02/22 06:38:26;;;;;;;34.42;3.97;;;4.00;99.90;;;;;;5081025;28;20083;-53
2022/02/22 06:40:52;;;;;;;26.23;3.72;;;4.00;99.90;;;;;;5083456;28;20070;-56
2022/02/22 06:43:21;;;;;;;25.08;4.13;;;4.00;99.90;;;;;;5082735;28;20079;-64
2022/02/22 06:45:47;;;;;;;45.22;6.10;;;4.00;99.90;;;;;;5084240;28;20067;-61
2022/02/22 06:48:14;;;;;;;28.05;4.10;;;4.00;99.90;;;;;;5066859;28;20041;-53
2022/02/22 06:50:41;;;;;;;34.40;4.28;;;4.00;99.90;;;;;;5064133;28;20560;-58
2022/02/22 06:53:06;;;;;;;44.80;5.68;;;4.00;99.90;;;;;;5047317;28;20124;-62
2022/02/22 06:55:33;;;;;;;24.65;2.80;;;4.00;99.90;;;;;;5046995;28;20398;-57
2022/02/22 06:58:07;;;;;;;39.63;7.20;;;4.10;99.90;;;;;;5050757;28;20076;-60
2022/02/22 07:00:35;;;;;;;37.65;4.88;;;4.10;99.90;;;;;;5068290;28;20421;-63
2022/02/22 07:03:02;;;;;;;31.10;4.18;;;4.10;99.90;;;;;;5067972;28;20198;-59
2022/02/22 07:05:28;;;;;;;40.03;6.18;;;4.00;99.90;;;;;;5061397;28;20616;-56
2022/02/22 07:07:55;;;;;;;22.55;3.05;;;4.00;99.90;;;;;;5050263;28;20088;-61
2022/02/22 07:10:21;;;;;;;30.50;3.45;;;4.00;99.90;;;;;;5063991;28;20048;-66
2022/02/22 07:12:47;;;;;;;32.70;3.42;;;4.10;99.90;;;;;;5077284;28;20054;-57
2022/02/22 07:15:12;;;;;;;29.50;4.20;;;4.10;99.90;;;;;;5089994;28;20043;-58
2022/02/22 07:17:50;;;;;;;15.10;2.70;;;4.10;99.90;;;;;;5085329;28;20039;-53
2022/02/22 07:20:17;;;;;;;29.60;3.90;;;4.20;99.90;;;;;;5066105;28;20083;-64
2022/02/22 07:22:44;;;;;;;50.65;5.20;;;4.30;99.90;;;;;;5082080;28;20054;-51
2022/02/22 07:25:11;;;;;;;40.22;4.65;;;4.40;99.90;;;;;;5086377;28;20036;-56
2022/02/22 07:27:37;;;;;;;41.85;4.63;;;4.40;99.90;;;;;;5084886;28;20431;-56
2022/02/22 07:30:04;;;;;;;38.38;5.35;;;4.40;99.90;;;;;;5095010;28;20116;-59
2022/02/22 07:32:30;;;;;;;27.13;4.03;;;4.50;99.90;;;;;;5074651;28;20079;-57
2022/02/22 07:34:56;;;;;;;33.03;4.32;;;4.50;99.90;;;;;;5070363;28;20156;-55
2022/02/22 07:37:21;;;;;;;44.45;6.00;;;4.70;99.90;;;;;;5092523;28;20035;-58
2022/02/22 07:39:47;;;;;;;34.75;5.18;;;4.70;99.90;;;;;;5088651;28;20122;-56
2022/02/22 07:42:13;;;;;;;36.75;5.60;;;4.80;99.90;;;;;;5095668;28;20050;-62
2022/02/22 07:44:39;;;;;;;28.40;3.85;;;4.80;99.90;;;;;;5088730;28;20036;-54
2022/02/22 07:47:04;;;;;;;40.33;5.05;;;4.80;99.90;;;;;;5101418;28;20092;-51
2022/02/22 07:49:30;;;;;;;39.78;5.30;;;4.90;99.90;;;;;;5094652;28;20116;-57
2022/02/22 07:51:56;;;;;;;47.88;4.97;;;4.90;99.90;;;;;;5088345;28;20087;-54
2022/02/22 07:54:22;;;;;;;52.85;5.63;;;4.90;99.90;;;;;;5083846;28;20123;-60
2022/02/22 07:56:48;;;;;;;55.33;5.78;;;4.90;99.90;;;;;;5097781;28;20044;-60
2022/02/22 07:59:13;;;;;;;47.70;4.82;;;4.90;99.90;;;;;;5087475;28;20044;-61
2022/02/22 08:01:40;;;;;;;48.88;6.70;;;4.90;99.90;;;;;;5087396;28;20036;-60
2022/02/22 08:04:06;;;;;;;39.40;6.13;;;4.90;99.90;;;;;;5087171;28;20551;-58
2022/02/22 08:06:33;;;;;;;39.40;4.90;;;4.80;99.90;;;;;;5078992;28;20044;-55
2022/02/22 08:08:59;;;;;;;47.72;5.45;;;4.80;99.90;;;;;;5083498;28;20506;-60
2022/02/22 08:11:29;;;;;;;43.08;5.28;;;4.90;99.90;;;;;;5107940;28;20078;-63
2022/02/22 08:13:55;;;;;;;47.83;5.88;;;4.90;99.90;;;;;;5102032;28;20393;-57
2022/02/22 08:16:21;;;;;;;57.78;5.97;;;4.90;99.90;;;;;;5081210;28;20099;-57
2022/02/22 08:18:47;;;;;;;36.95;3.65;;;5.00;99.90;;;;;;5069206;28;20047;-60
2022/02/22 08:21:13;;;;;;;23.27;3.08;;;5.10;99.90;;;;;;5088941;28;20056;-62
2022/02/22 08:23:39;;;;;;;33.38;4.80;;;5.10;99.90;;;;;;5096705;28;20054;-60
2022/02/22 08:26:05;;;;;;;31.38;3.88;;;5.30;99.90;;;;;;5089576;28;20047;-63
2022/02/22 08:28:31;;;;;;;46.50;5.97;;;5.50;99.90;;;;;;5066845;28;20046;-60
2022/02/22 08:30:57;;;;;;;31.63;3.03;;;5.50;99.90;;;;;;5085344;28;20505;-56
2022/02/22 08:33:23;;;;;;;36.22;4.70;;;5.60;99.90;;;;;;5067488;28;20547;-63
2022/02/22 08:35:49;;;;;;;31.67;2.95;;;5.70;99.90;;;;;;5096632;28;20493;-61
2022/02/22 08:38:16;;;;;;;19.38;2.75;;;5.80;99.90;;;;;;5075063;28;20032;-60
2022/02/22 08:40:42;;;;;;;32.03;3.95;;;5.80;99.90;;;;;;5082503;28;20123;-60
2022/02/22 08:43:08;;;;;;;38.40;4.10;;;5.90;99.90;;;;;;5086470;28;20508;-56
2022/02/22 08:45:34;;;;;;;31.73;4.18;;;5.90;99.90;;;;;;5088806;28;20132;-58
2022/02/22 08:47:59;;;;;;;34.20;4.20;;;5.90;99.90;;;;;;5090235;28;20464;-51
2022/02/22 08:50:26;;;;;;;16.50;2.13;;;5.90;99.90;;;;;;5086484;28;20048;-62
2022/02/22 08:52:52;;;;;;;31.77;5.22;;;6.00;99.90;;;;;;5087422;28;20059;-56
2022/02/22 08:55:18;;;;;;;29.83;4.63;;;6.00;99.90;;;;;;5050562;28;20478;-58
2022/02/22 08:57:44;;;;;;;46.75;6.03;;;6.00;99.90;;;;;;5087093;28;20051;-54
2022/02/22 09:00:11;;;;;;;6.55;1.50;;;6.10;99.90;;;;;;5086587;28;20386;-59
2022/02/22 09:02:38;;;;;;;37.13;4.75;;;6.20;99.90;;;;;;5085393;28;20076;-60
2022/02/22 09:05:05;;;;;;;16.92;2.53;;;6.30;99.90;;;;;;5099399;28;20104;-63
2022/02/22 09:07:31;;;;;;;33.95;4.75;;;6.30;99.90;;;;;;5087487;28;20047;-50
2022/02/22 09:10:00;;;;;;;20.25;3.08;;;6.40;99.90;;;;;;5083519;28;20047;-57
2022/02/22 09:12:27;;;;;;;43.58;5.40;;;6.50;99.90;;;;;;5096477;28;20043;-59
2022/02/22 09:14:54;;;;;;;26.70;3.85;;;6.40;99.90;;;;;;5100408;28;20278;-53
2022/02/22 09:17:20;;;;;;;33.55;3.33;;;6.50;99.90;;;;;;5099256;28;20485;-61
2022/02/22 09:19:52;;;;;;;41.40;5.70;;;6.50;99.90;;;;;;5061441;28;20447;-60
2022/02/22 09:22:24;;;;;;;41.85;5.50;;;6.50;99.90;;;;;;5102646;28;20104;-66
2022/02/22 09:24:50;;;;;;;9.50;1.73;;;6.60;99.90;;;;;;5096768;28;20042;-54
2022/02/22 09:27:16;;;;;;;48.30;5.72;;;6.60;99.90;;;;;;5076784;28;20040;-62
2022/02/22 09:29:42;;;;;;;16.05;2.20;;;6.70;99.90;;;;;;5080287;28;20052;-65
2022/02/22 09:32:08;;;;;;;49.08;5.72;;;6.60;99.90;;;;;;5074776;28;20494;-58
2022/02/22 09:34:34;;;;;;;21.40;3.08;;;6.70;99.90;;;;;;5088540;28;21120;-60
2022/02/22 09:37:03;;;;;;;11.82;1.77;;;6.70;99.90;;;;;;5054115;28;20131;-57
2022/02/22 09:39:30;;;;;;;33.30;4.57;;;6.70;99.90;;;;;;5096354;28;20042;-62
2022/02/22 09:41:57;;;;;;;32.70;3.50;;;6.80;99.90;;;;;;5100571;28;20047;-61
2022/02/22 09:44:23;;;;;;;28.90;3.95;;;6.80;99.90;;;;;;5064736;28;20051;-54
2022/02/22 09:46:50;;;;;;;16.08;3.35;;;6.80;99.90;;;;;;5096329;28;20617;-64
2022/02/22 09:49:16;;;;;;;38.35;3.92;;;6.80;99.90;;;;;;5066905;28;20105;-63
2022/02/22 09:51:42;;;;;;;26.48;3.70;;;6.80;99.90;;;;;;5079930;28;20048;-61
2022/02/22 09:54:08;;;;;;;35.22;4.32;;;6.80;99.90;;;;;;5101630;28;20051;-54
2022/02/22 09:56:44;;;;;;;33.20;3.70;;;6.80;99.90;;;;;;5097842;28;20051;-58
2022/02/22 09:59:11;;;;;;;23.98;3.95;;;6.80;99.90;;;;;;5064974;28;20046;-52
2022/02/22 10:01:40;;;;;;;28.23;3.65;;;6.80;99.90;;;;;;5083660;28;20042;-68
2022/02/22 10:04:07;;;;;;;28.52;3.40;;;6.80;99.90;;;;;;5067680;28;20421;-62
2022/02/22 10:06:33;;;;;;;38.95;4.35;;;6.70;99.90;;;;;;5103247;28;20564;-56
2022/02/22 10:08:59;;;;;;;27.98;3.30;;;6.70;99.90;;;;;;5099547;28;20122;-55
2022/02/22 10:11:24;;;;;;;9.32;1.83;;;6.70;99.90;;;;;;5104258;28;20048;-60
2022/02/22 10:13:50;;;;;;;15.57;1.90;;;6.70;99.90;;;;;;5063509;28;20069;-62
2022/02/22 10:16:16;;;;;;;13.02;2.00;;;6.70;99.90;;;;;;5065426;28;20062;-62
2022/02/22 10:18:52;;;;;;;35.05;3.45;;;6.80;99.90;;;;;;5100217;28;20047;-61
2022/02/22 10:21:20;;;;;;;23.08;3.78;;;6.80;99.90;;;;;;5081996;28;20044;-55
2022/02/22 10:23:46;;;;;;;14.48;2.38;;;6.90;99.90;;;;;;5094881;28;20116;-57
2022/02/22 10:26:20;;;;;;;15.75;2.20;;;6.90;99.90;;;;;;5054144;28;20099;-62
2022/02/22 10:28:46;;;;;;;23.95;3.42;;;6.90;99.90;;;;;;5060354;28;20036;-64
2022/02/22 10:31:12;;;;;;;17.50;2.53;;;7.00;99.90;;;;;;5046578;28;20067;-66
2022/02/22 10:33:43;;;;;;;11.05;2.38;;;7.00;99.90;;;;;;5093649;28;20742;-60
2022/02/22 10:36:19;;;;;;;33.85;3.75;;;7.10;99.90;;;;;;5076354;28;20056;-64
2022/02/22 10:38:45;;;;;;;22.95;4.50;;;7.10;99.90;;;;;;5084793;28;20098;-68
2022/02/22 10:41:18;;;;;;;14.38;2.40;;;7.20;99.90;;;;;;5075216;28;20080;-62
2022/02/22 10:43:52;;;;;;;20.38;3.22;;;7.20;99.90;;;;;;5073320;28;20056;-56
2022/02/22 10:46:27;;;;;;;24.10;4.18;;;7.30;99.90;;;;;;5067824;28;20040;-57
2022/02/22 10:49:06;;;;;;;7.85;1.48;;;7.30;99.90;;;;;;5070899;28;20555;-64
2022/02/22 10:51:43;;;;;;;22.33;3.55;;;7.30;99.90;;;;;;5088403;28;20421;-61
2022/02/22 10:54:15;;;;;;;24.67;2.88;;;7.40;99.90;;;;;;5089224;28;20048;-65
2022/02/22 10:56:41;;;;;;;16.85;2.30;;;7.40;99.90;;;;;;5103409;28;20509;-65
2022/02/22 10:59:07;;;;;;;26.95;2.70;;;7.40;99.90;;;;;;5087697;28;20031;-66
2022/02/22 11:01:33;;;;;;;24.73;3.22;;;7.40;99.90;;;;;;5101485;28;20052;-65
2022/02/22 11:03:59;;;;;;;18.98;2.58;;;7.40;99.90;;;;;;5088688;28;20646;-66
2022/02/22 11:06:25;;;;;;;33.65;4.32;;;7.40;99.90;;;;;;5096762;28;20846;-56
2022/02/22 11:08:54;;;;;;;36.85;5.53;;;7.40;99.90;;;;;;5078277;28;20563;-62
2022/02/22 11:11:44;;;;;;;31.95;5.07;;;7.50;99.90;;;;;;5104430;28;20164;-56
2022/02/22 11:14:27;;;;;;;31.13;5.10;;;7.50;99.90;;;;;;5084735;28;20162;-64
2022/02/22 11:16:55;;;;;;;9.80;2.55;;;7.50;99.90;;;;;;5105403;28;20043;-57
2022/02/22 11:19:22;;;;;;;13.07;1.40;;;7.50;99.90;;;;;;5087624;28;20044;-57
2022/02/22 11:22:07;;;;;;;33.92;5.57;;;7.50;99.90;;;;;;5084306;28;20048;-63
2022/02/22 11:24:42;;;;;;;32.22;4.78;;;7.50;99.90;;;;;;5072166;28;20048;-59
2022/02/22 11:27:08;;;;;;;25.58;4.15;;;7.50;99.90;;;;;;5069016;28;20039;-61
2022/02/22 11:29:35;;;;;;;17.63;2.80;;;7.50;99.90;;;;;;5088360;28;20056;-55
2022/02/22 11:32:07;;;;;;;21.13;3.50;;;7.40;99.90;;;;;;5087904;28;20054;-64
2022/02/22 11:34:39;;;;;;;30.63;5.28;;;7.50;99.90;;;;;;5085601;28;20042;-60
2022/02/22 11:37:08;;;;;;;19.67;3.17;;;7.60;99.90;;;;;;5088854;28;20032;-66
2022/02/22 11:39:51;;;;;;;30.88;4.85;;;7.60;99.90;;;;;;5087439;28;20097;-66
2022/02/22 11:42:31;;;;;;;9.18;2.38;;;7.70;99.90;;;;;;5071069;28;20159;-63
2022/02/22 11:45:26;;;;;;;17.77;2.30;;;7.70;99.90;;;;;;5078626;28;20047;-66
2022/02/22 11:48:22;;;;;;;37.40;5.22;;;7.70;99.90;;;;;;5077949;28;20047;-58
2022/02/22 11:50:57;;;;;;;23.65;4.57;;;7.70;99.90;;;;;;5075562;28;20044;-58
2022/02/22 11:53:28;;;;;;;27.90;4.50;;;7.70;99.90;;;;;;5042406;28;20043;-51
2022/02/22 11:55:59;;;;;;;20.15;3.92;;;7.60;99.90;;;;;;5083976;28;20063;-52
2022/02/22 11:58:30;;;;;;;18.48;3.72;;;7.50;99.90;;;;;;5107139;28;20390;-51
2022/02/22 12:01:04;;;;;;;29.58;5.55;;;7.40;99.90;;;;;;5083601;28;20047;-52
2022/02/22 12:03:42;;;;;;;10.30;2.20;;;7.40;99.90;;;;;;5092762;28;20046;-58
2022/02/22 12:06:09;;;;;;;40.90;5.50;;;7.30;99.90;;;;;;5097040;28;20136;-63
2022/02/22 12:08:40;;;;;;;42.92;5.88;;;7.30;99.90;;;;;;5086133;28;20046;-61
2022/02/22 12:11:16;;;;;;;35.53;4.95;;;7.40;99.90;;;;;;5083239;28;20036;-58
2022/02/22 12:13:49;;;;;;;30.55;3.78;;;7.40;99.90;;;;;;5099224;28;20043;-59
2022/02/22 12:16:20;;;;;;;39.70;6.43;;;7.30;99.90;;;;;;5106892;28;20039;-58
2022/02/22 12:18:48;;;;;;;37.45;5.65;;;7.30;99.90;;;;;;5106933;28;20517;-53
2022/02/22 12:21:19;;;;;;;19.15;3.90;;;7.30;99.90;;;;;;5070358;28;20044;-56
2022/02/22 12:23:46;;;;;;;18.20;2.90;;;7.30;99.90;;;;;;5067687;28;20052;-53
2022/02/22 12:26:15;;;;;;;18.80;2.67;;;7.30;99.90;;;;;;5086684;28;20387;-66
2022/02/22 12:28:46;;;;;;;19.10;3.60;;;7.30;99.90;;;;;;5087275;28;20063;-54
2022/02/22 12:31:35;;;;;;;13.90;2.75;;;7.40;99.90;;;;;;5050516;28;20087;-65
2022/02/22 12:34:12;;;;;;;11.85;3.17;;;7.40;99.90;;;;;;5070509;28;21011;-56
2022/02/22 12:36:43;;;;;;;35.53;5.65;;;7.30;99.90;;;;;;5057374;28;20040;-50
2022/02/22 12:39:18;;;;;;;26.05;4.00;;;7.20;99.90;;;;;;5065815;28;20110;-63
2022/02/22 12:41:50;;;;;;;32.47;4.07;;;7.20;99.90;;;;;;5063150;28;20044;-61
2022/02/22 12:44:17;;;;;;;29.17;5.32;;;7.20;99.90;;;;;;5080137;28;20627;-59
2022/02/22 12:46:46;;;;;;;34.55;4.35;;;7.20;99.90;;;;;;5055013;28;20047;-58